sensor_id;sensor_type;location;lat;lon;timestamp;pressure;altitude;pressure_sealevel;temperature;humidity
42811;BME280;28457;55.680;37.656;2022-08-19T00:00:13;100533.38;;;25.93;37.35
42811;BME280;28457;55.680;37.656;2022-08-19T00:02:42;100528.69;;;25.93;37.03
42811;BME280;28457;55.680;37.656;2022-08-19T00:05:17;100528.97;;;25.92;37.28
42811;BME280;28457;55.680;37.656;2022-08-19T00:07:46;100533.69;;;25.91;37.18
42811;BME280;28457;55.680;37.656;2022-08-19T00:10:16;100524.56;;;25.91;37.38
42811;BME280;28457;55.680;37.656;2022-08-19T00:12:44;100533.94;;;25.90;37.41
42811;BME280;28457;55.680;37.656;2022-08-19T00:15:18;100531.19;;;25.90;37.48
42811;BME280;28457;55.680;37.656;2022-08-19T00:17:47;100533.41;;;25.88;37.74
42811;BME280;28457;55.680;37.656;2022-08-19T00:20:18;100531.75;;;25.87;37.53
42811;BME280;28457;55.680;37.656;2022-08-19T00:22:47;100543.59;;;25.82;38.18
42811;BME280;28457;55.680;37.656;2022-08-19T00:25:16;100542.25;;;25.79;37.41
42811;BME280;28457;55.680;37.656;2022-08-19T00:27:56;100551.59;;;25.73;37.51
42811;BME280;28457;55.680;37.656;2022-08-19T00:30:27;100542.50;;;25.73;37.58
42811;BME280;28457;55.680;37.656;2022-08-19T00:32:56;100546.91;;;25.74;37.42
42811;BME280;28457;55.680;37.656;2022-08-19T00:35:24;100550.75;;;25.73;37.48
42811;BME280;28457;55.680;37.656;2022-08-19T00:37:54;100547.72;;;25.64;37.35
42811;BME280;28457;55.680;37.656;2022-08-19T00:40:23;100555.16;;;25.64;37.35
42811;BME280;28457;55.680;37.656;2022-08-19T00:42:52;100552.41;;;25.64;37.58
42811;BME280;28457;55.680;37.656;2022-08-19T00:45:23;100555.16;;;25.59;37.85
42811;BME280;28457;55.680;37.656;2022-08-19T00:47:53;100552.41;;;25.59;37.91
42811;BME280;28457;55.680;37.656;2022-08-19T00:50:22;100557.63;;;25.50;37.95
42811;BME280;28457;55.680;37.656;2022-08-19T00:52:51;100557.91;;;25.53;37.81
42811;BME280;28457;55.680;37.656;2022-08-19T00:55:24;100562.31;;;25.49;37.55
42811;BME280;28457;55.680;37.656;2022-08-19T00:57:58;100572.53;;;25.44;37.75
42811;BME280;28457;55.680;37.656;2022-08-19T01:00:28;100579.94;;;25.38;37.55
42811;BME280;28457;55.680;37.656;2022-08-19T01:02:59;100574.16;;;25.35;37.96
42811;BME280;28457;55.680;37.656;2022-08-19T01:05:29;100576.63;;;25.36;37.72
42811;BME280;28457;55.680;37.656;2022-08-19T01:07:59;100589.03;;;25.39;37.90
42811;BME280;28457;55.680;37.656;2022-08-19T01:10:31;100591.81;;;25.39;38.38
42811;BME280;28457;55.680;37.656;2022-08-19T01:13:03;100591.56;;;25.40;38.15
42811;BME280;28457;55.680;37.656;2022-08-19T01:15:35;100593.44;;;25.40;37.78
42811;BME280;28457;55.680;37.656;2022-08-19T01:18:10;100586.03;;;25.40;38.09
42811;BME280;28457;55.680;37.656;2022-08-19T01:20:40;100587.13;;;25.39;38.25
42811;BME280;28457;55.680;37.656;2022-08-19T01:23:10;100589.88;;;25.39;38.12
42811;BME280;28457;55.680;37.656;2022-08-19T01:25:44;100583.81;;;25.37;37.78
42811;BME280;28457;55.680;37.656;2022-08-19T01:28:18;100585.72;;;25.31;38.36
42811;BME280;28457;55.680;37.656;2022-08-19T01:31:06;100593.16;;;25.31;38.28
42811;BME280;28457;55.680;37.656;2022-08-19T01:33:55;100594.53;;;25.23;38.52
42811;BME280;28457;55.680;37.656;2022-08-19T01:36:27;100588.19;;;25.23;38.44
42811;BME280;28457;55.680;37.656;2022-08-19T01:38:58;100592.03;;;25.22;38.14
42811;BME280;28457;55.680;37.656;2022-08-19T01:41:27;100588.44;;;25.16;38.47
42811;BME280;28457;55.680;37.656;2022-08-19T01:43:56;100580.19;;;25.16;38.08
42811;BME280;28457;55.680;37.656;2022-08-19T01:46:44;100581.53;;;25.14;38.33
42811;BME280;28457;55.680;37.656;2022-08-19T01:49:12;100583.41;;;25.08;38.51
42811;BME280;28457;55.680;37.656;2022-08-19T01:51:41;100572.38;;;25.08;38.38
42811;BME280;28457;55.680;37.656;2022-08-19T01:54:14;100571.56;;;25.07;38.23
42811;BME280;28457;55.680;37.656;2022-08-19T01:56:56;100566.31;;;25.06;38.15
42811;BME280;28457;55.680;37.656;2022-08-19T01:59:26;100563.00;;;25.04;38.34
42811;BME280;28457;55.680;37.656;2022-08-19T02:01:54;100551.97;;;25.04;38.17
42811;BME280;28457;55.680;37.656;2022-08-19T02:04:23;100547.00;;;25.01;38.10
42811;BME280;28457;55.680;37.656;2022-08-19T02:06:52;100544.53;;;24.99;38.76
42811;BME280;28457;55.680;37.656;2022-08-19T02:09:22;100548.38;;;24.98;38.83
42811;BME280;28457;55.680;37.656;2022-08-19T02:11:50;100579.22;;;24.95;39.22
42811;BME280;28457;55.680;37.656;2022-08-19T02:14:20;100604.25;;;24.83;39.67
42811;BME280;28457;55.680;37.656;2022-08-19T02:16:48;100608.91;;;24.83;39.18
42811;BME280;28457;55.680;37.656;2022-08-19T02:19:17;100599.25;;;24.75;39.33
42811;BME280;28457;55.680;37.656;2022-08-19T02:21:45;100602.53;;;24.67;39.39
42811;BME280;28457;55.680;37.656;2022-08-19T02:24:14;100600.81;;;24.61;39.53
42811;BME280;28457;55.680;37.656;2022-08-19T02:26:44;100606.09;;;24.63;39.44
42811;BME280;28457;55.680;37.656;2022-08-19T02:29:12;100601.94;;;24.60;39.36
42811;BME280;28457;55.680;37.656;2022-08-19T02:31:41;100606.91;;;24.63;39.66
42811;BME280;28457;55.680;37.656;2022-08-19T02:34:09;100605.50;;;24.60;39.31
42811;BME280;28457;55.680;37.656;2022-08-19T02:36:37;100607.72;;;24.64;39.35
42811;BME280;28457;55.680;37.656;2022-08-19T02:39:08;100601.94;;;24.65;39.22
42811;BME280;28457;55.680;37.656;2022-08-19T02:41:36;100611.06;;;24.66;39.40
42811;BME280;28457;55.680;37.656;2022-08-19T02:44:06;100605.56;;;24.66;39.45
42811;BME280;28457;55.680;37.656;2022-08-19T02:46:54;100609.38;;;24.65;39.45
42811;BME280;28457;55.680;37.656;2022-08-19T02:49:23;100612.97;;;24.65;39.66
42811;BME280;28457;55.680;37.656;2022-08-19T02:51:51;100610.22;;;24.65;39.54
42811;BME280;28457;55.680;37.656;2022-08-19T02:54:21;100614.88;;;24.65;39.43
42811;BME280;28457;55.680;37.656;2022-08-19T02:56:49;100618.75;;;24.64;39.38
42811;BME280;28457;55.680;37.656;2022-08-19T02:59:19;100623.44;;;24.63;39.48
42811;BME280;28457;55.680;37.656;2022-08-19T03:01:49;100613.53;;;24.62;39.67
42811;BME280;28457;55.680;37.656;2022-08-19T03:04:17;100614.88;;;24.59;39.16
42811;BME280;28457;55.680;37.656;2022-08-19T03:06:46;100613.22;;;24.58;39.39
42811;BME280;28457;55.680;37.656;2022-08-19T03:09:17;100612.66;;;24.56;39.69
42811;BME280;28457;55.680;37.656;2022-08-19T03:11:46;100615.94;;;24.53;39.82
42811;BME280;28457;55.680;37.656;2022-08-19T03:14:20;100616.19;;;24.52;39.67
42811;BME280;28457;55.680;37.656;2022-08-19T03:16:50;100628.28;;;24.51;39.78
42811;BME280;28457;55.680;37.656;2022-08-19T03:19:19;100623.88;;;24.45;40.70
42811;BME280;28457;55.680;37.656;2022-08-19T03:21:49;100626.00;;;24.37;40.28
42811;BME280;28457;55.680;37.656;2022-08-19T03:24:19;100627.91;;;24.37;40.79
42811;BME280;28457;55.680;37.656;2022-08-19T03:26:49;100629.28;;;24.34;40.52
42811;BME280;28457;55.680;37.656;2022-08-19T03:29:20;100639.41;;;24.29;40.78
42811;BME280;28457;55.680;37.656;2022-08-19T03:31:57;100639.97;;;24.31;40.44
42811;BME280;28457;55.680;37.656;2022-08-19T03:34:29;100634.19;;;24.32;40.55
42811;BME280;28457;55.680;37.656;2022-08-19T03:37:04;100635.03;;;24.33;40.93
42811;BME280;28457;55.680;37.656;2022-08-19T03:39:35;100632.25;;;24.33;41.06
42811;BME280;28457;55.680;37.656;2022-08-19T03:42:04;100624.88;;;24.33;41.11
42811;BME280;28457;55.680;37.656;2022-08-19T03:44:54;100618.25;;;24.34;40.99
42811;BME280;28457;55.680;37.656;2022-08-19T03:47:22;100619.34;;;24.33;41.06
42811;BME280;28457;55.680;37.656;2022-08-19T03:49:51;100618.25;;;24.34;40.94
42811;BME280;28457;55.680;37.656;2022-08-19T03:52:19;100628.16;;;24.35;41.23
42811;BME280;28457;55.680;37.656;2022-08-19T03:54:48;100624.59;;;24.35;41.68
42811;BME280;28457;55.680;37.656;2022-08-19T03:57:16;100624.59;;;24.35;41.73
42811;BME280;28457;55.680;37.656;2022-08-19T03:59:45;100617.16;;;24.35;41.83
42811;BME280;28457;55.680;37.656;2022-08-19T04:02:14;100623.47;;;24.36;42.00
42811;BME280;28457;55.680;37.656;2022-08-19T04:04:43;100623.75;;;24.34;41.59
42811;BME280;28457;55.680;37.656;2022-08-19T04:07:14;100643.25;;;24.28;41.84
42811;BME280;28457;55.680;37.656;2022-08-19T04:09:43;100637.16;;;24.26;41.87
42811;BME280;28457;55.680;37.656;2022-08-19T04:12:12;100641.59;;;24.27;42.00
42811;BME280;28457;55.680;37.656;2022-08-19T04:14:41;100638.56;;;24.28;42.36
42811;BME280;28457;55.680;37.656;2022-08-19T04:17:10;100643.25;;;24.28;42.18
42811;BME280;28457;55.680;37.656;2022-08-19T04:19:41;100639.97;;;24.31;42.10
42811;BME280;28457;55.680;37.656;2022-08-19T04:22:10;100644.38;;;24.32;42.22
42811;BME280;28457;55.680;37.656;2022-08-19T04:24:39;100640.53;;;24.33;42.05
42811;BME280;28457;55.680;37.656;2022-08-19T04:27:08;100642.44;;;24.32;42.28
42811;BME280;28457;55.680;37.656;2022-08-19T04:29:36;100637.53;;;24.34;41.88
42811;BME280;28457;55.680;37.656;2022-08-19T04:32:06;100645.50;;;24.36;41.81
42811;BME280;28457;55.680;37.656;2022-08-19T04:34:36;100641.38;;;24.33;41.84
42811;BME280;28457;55.680;37.656;2022-08-19T04:37:27;100647.97;;;24.32;41.90
42811;BME280;28457;55.680;37.656;2022-08-19T04:40:03;100651.25;;;24.29;41.91
42811;BME280;28457;55.680;37.656;2022-08-19T04:42:50;100657.31;;;24.31;41.95
42811;BME280;28457;55.680;37.656;2022-08-19T04:45:19;100650.19;;;24.35;42.07
42811;BME280;28457;55.680;37.656;2022-08-19T04:47:49;100646.91;;;24.38;42.43
42811;BME280;28457;55.680;37.656;2022-08-19T04:50:40;100647.53;;;24.41;42.34
42811;BME280;28457;55.680;37.656;2022-08-19T04:53:10;100654.34;;;24.38;41.88
42811;BME280;28457;55.680;37.656;2022-08-19T04:55:40;100652.19;;;24.40;41.96
42811;BME280;28457;55.680;37.656;2022-08-19T04:58:09;100643.66;;;24.42;41.99
42811;BME280;28457;55.680;37.656;2022-08-19T05:00:38;100646.97;;;24.44;42.29
42811;BME280;28457;55.680;37.656;2022-08-19T05:03:07;100646.19;;;24.48;42.44
42811;BME280;28457;55.680;37.656;2022-08-19T05:05:39;100650.59;;;24.49;42.69
42811;BME280;28457;55.680;37.656;2022-08-19T05:08:13;100645.09;;;24.49;42.44
42811;BME280;28457;55.680;37.656;2022-08-19T05:10:57;100650.63;;;24.54;42.18
42811;BME280;28457;55.680;37.656;2022-08-19T05:13:26;100644.56;;;24.52;42.83
42811;BME280;28457;55.680;37.656;2022-08-19T05:15:56;100647.88;;;24.54;42.84
42811;BME280;28457;55.680;37.656;2022-08-19T05:18:25;100651.50;;;24.60;42.82
42811;BME280;28457;55.680;37.656;2022-08-19T05:21:14;100655.09;;;24.60;42.63
42811;BME280;28457;55.680;37.656;2022-08-19T05:24:02;100649.31;;;24.62;42.07
42811;BME280;28457;55.680;37.656;2022-08-19T05:26:36;100652.63;;;24.64;42.57
42811;BME280;28457;55.680;37.656;2022-08-19T05:29:06;100651.28;;;24.67;42.58
42811;BME280;28457;55.680;37.656;2022-08-19T05:31:36;100648.25;;;24.68;42.67
42811;BME280;28457;55.680;37.656;2022-08-19T05:34:08;100652.03;;;24.57;42.27
42811;BME280;28457;55.680;37.656;2022-08-19T05:36:46;100648.75;;;24.60;42.71
42811;BME280;28457;55.680;37.656;2022-08-19T05:39:19;100647.94;;;24.65;42.40
42811;BME280;28457;55.680;37.656;2022-08-19T05:41:51;100640.25;;;24.67;42.62
42811;BME280;28457;55.680;37.656;2022-08-19T05:44:20;100643.84;;;24.72;42.59
42811;BME280;28457;55.680;37.656;2022-08-19T05:46:49;100656.84;;;24.77;42.78
42811;BME280;28457;55.680;37.656;2022-08-19T05:49:22;100646.94;;;24.81;42.94
42811;BME280;28457;55.680;37.656;2022-08-19T05:51:51;100643.38;;;24.85;42.49
42811;BME280;28457;55.680;37.656;2022-08-19T05:54:21;100644.22;;;24.86;42.83
42811;BME280;28457;55.680;37.656;2022-08-19T05:56:51;100644.25;;;24.91;42.74
42811;BME280;28457;55.680;37.656;2022-08-19T05:59:20;100641.50;;;24.96;42.27
42811;BME280;28457;55.680;37.656;2022-08-19T06:01:52;100650.06;;;25.00;42.64
42811;BME280;28457;55.680;37.656;2022-08-19T06:04:23;100639.91;;;25.05;42.59
42811;BME280;28457;55.680;37.656;2022-08-19T06:06:53;100652.88;;;25.10;42.22
42811;BME280;28457;55.680;37.656;2022-08-19T06:09:23;100644.63;;;25.10;42.55
42811;BME280;28457;55.680;37.656;2022-08-19T06:11:53;100645.50;;;25.16;42.59
42811;BME280;28457;55.680;37.656;2022-08-19T06:14:27;100649.38;;;25.20;42.33
42811;BME280;28457;55.680;37.656;2022-08-19T06:16:57;100646.91;;;25.23;42.64
42811;BME280;28457;55.680;37.656;2022-08-19T06:19:32;100652.19;;;25.30;41.90
42811;BME280;28457;55.680;37.656;2022-08-19T06:22:07;100648.03;;;25.32;42.17
42811;BME280;28457;55.680;37.656;2022-08-19T06:24:38;100646.13;;;25.38;42.07
42811;BME280;28457;55.680;37.656;2022-08-19T06:27:06;100650.84;;;25.43;41.95
42811;BME280;28457;55.680;37.656;2022-08-19T06:29:35;100653.06;;;25.46;42.37
42811;BME280;28457;55.680;37.656;2022-08-19T06:32:04;100653.63;;;25.48;42.45
42811;BME280;28457;55.680;37.656;2022-08-19T06:34:34;100655.00;;;25.50;42.11
42811;BME280;28457;55.680;37.656;2022-08-19T06:37:02;100643.94;;;25.50;41.67
42811;BME280;28457;55.680;37.656;2022-08-19T06:39:35;100640.41;;;25.55;42.48
42811;BME280;28457;55.680;37.656;2022-08-19T06:42:06;100650.31;;;25.56;41.92
42811;BME280;28457;55.680;37.656;2022-08-19T06:44:40;100642.06;;;25.56;42.09
42811;BME280;28457;55.680;37.656;2022-08-19T06:47:17;100646.19;;;25.59;41.61
42811;BME280;28457;55.680;37.656;2022-08-19T06:49:53;100637.09;;;25.58;41.51
42811;BME280;28457;55.680;37.656;2022-08-19T06:52:31;100644.81;;;25.61;42.17
42811;BME280;28457;55.680;37.656;2022-08-19T06:55:05;100647.84;;;25.60;41.94
42811;BME280;28457;55.680;37.656;2022-08-19T06:57:35;100646.75;;;25.61;41.69
42811;BME280;28457;55.680;37.656;2022-08-19T07:00:05;100644.56;;;25.63;42.07
42811;BME280;28457;55.680;37.656;2022-08-19T07:02:39;100649.50;;;25.61;41.24
42811;BME280;28457;55.680;37.656;2022-08-19T07:05:14;100650.91;;;25.63;41.17
42811;BME280;28457;55.680;37.656;2022-08-19T07:07:42;100652.28;;;25.66;41.13
42811;BME280;28457;55.680;37.656;2022-08-19T07:10:13;100652.00;;;25.67;41.04
42811;BME280;28457;55.680;37.656;2022-08-19T07:12:44;100654.75;;;25.67;41.01
42811;BME280;28457;55.680;37.656;2022-08-19T07:15:14;100646.78;;;25.71;40.67
42811;BME280;28457;55.680;37.656;2022-08-19T07:17:44;100646.50;;;25.77;40.70
42811;BME280;28457;55.680;37.656;2022-08-19T07:20:19;100645.16;;;25.85;41.17
42811;BME280;28457;55.680;37.656;2022-08-19T07:22:54;100646.84;;;25.91;41.25
42811;BME280;28457;55.680;37.656;2022-08-19T07:25:22;100643.53;;;25.94;39.85
42811;BME280;28457;55.680;37.656;2022-08-19T07:28:00;100645.44;;;26.04;40.57
42811;BME280;28457;55.680;37.656;2022-08-19T07:30:29;100646.84;;;26.01;39.76
42811;BME280;28457;55.680;37.656;2022-08-19T07:33:00;100644.09;;;26.07;39.46
42811;BME280;28457;55.680;37.656;2022-08-19T07:35:30;100655.69;;;26.14;40.25
42811;BME280;28457;55.680;37.656;2022-08-19T07:38:00;100653.22;;;26.22;40.26
42811;BME280;28457;55.680;37.656;2022-08-19T07:40:30;100657.34;;;26.30;40.12
42811;BME280;28457;55.680;37.656;2022-08-19T07:43:00;100660.66;;;26.37;40.05
42811;BME280;28457;55.680;37.656;2022-08-19T07:45:29;100656.53;;;26.40;39.08
42811;BME280;28457;55.680;37.656;2022-08-19T07:47:59;100661.50;;;26.48;39.00
42811;BME280;28457;55.680;37.656;2022-08-19T07:50:28;100666.72;;;26.44;38.03
42811;BME280;28457;55.680;37.656;2022-08-19T07:52:56;100657.09;;;26.47;36.93
42811;BME280;28457;55.680;37.656;2022-08-19T07:55:25;100663.44;;;26.58;37.88
42811;BME280;28457;55.680;37.656;2022-08-19T07:58:12;100658.47;;;26.65;38.33
42811;BME280;28457;55.680;37.656;2022-08-19T08:00:42;100667.28;;;26.72;37.80
42811;BME280;28457;55.680;37.656;2022-08-19T08:03:11;100663.94;;;26.80;38.09
42811;BME280;28457;55.680;37.656;2022-08-19T08:05:39;100662.25;;;26.89;37.74
42811;BME280;28457;55.680;37.656;2022-08-19T08:08:26;100662.25;;;26.94;37.70
42811;BME280;28457;55.680;37.656;2022-08-19T08:11:17;100665.25;;;27.08;37.85
42811;BME280;28457;55.680;37.656;2022-08-19T08:13:48;100664.69;;;27.16;37.82
42811;BME280;28457;55.680;37.656;2022-08-19T08:16:32;100660.25;;;27.20;37.48
42811;BME280;28457;55.680;37.656;2022-08-19T08:19:06;100661.88;;;27.27;37.83
42811;BME280;28457;55.680;37.656;2022-08-19T08:21:54;100665.19;;;27.29;37.61
42811;BME280;28457;55.680;37.656;2022-08-19T08:24:24;100668.22;;;27.27;37.76
42811;BME280;28457;55.680;37.656;2022-08-19T08:26:54;100669.59;;;27.35;38.02
42811;BME280;28457;55.680;37.656;2022-08-19T08:29:25;100670.66;;;27.39;37.59
42811;BME280;28457;55.680;37.656;2022-08-19T08:32:01;100665.44;;;27.37;36.93
42811;BME280;28457;55.680;37.656;2022-08-19T08:34:40;100664.03;;;27.40;37.32
42811;BME280;28457;55.680;37.656;2022-08-19T08:37:08;100665.38;;;27.48;37.30
42811;BME280;28457;55.680;37.656;2022-08-19T08:39:37;100666.47;;;27.52;37.41
42811;BME280;28457;55.680;37.656;2022-08-19T08:42:10;100673.63;;;27.53;37.48
42811;BME280;28457;55.680;37.656;2022-08-19T08:44:48;100665.38;;;27.48;36.91
42811;BME280;28457;55.680;37.656;2022-08-19T08:47:27;100676.97;;;27.50;36.10
42811;BME280;28457;55.680;37.656;2022-08-19T08:50:01;100674.22;;;27.50;36.14
42811;BME280;28457;55.680;37.656;2022-08-19T08:52:33;100673.63;;;27.53;35.20
42811;BME280;28457;55.680;37.656;2022-08-19T08:55:08;100682.69;;;27.68;35.13
42811;BME280;28457;55.680;37.656;2022-08-19T08:57:41;100675.44;;;27.83;35.20
42811;BME280;28457;55.680;37.656;2022-08-19T09:00:17;100659.53;;;27.99;35.01
42811;BME280;28457;55.680;37.656;2022-08-19T09:02:46;100667.16;;;28.17;35.73
42811;BME280;28457;55.680;37.656;2022-08-19T09:05:17;100673.66;;;28.36;34.76
42811;BME280;28457;55.680;37.656;2022-08-19T09:07:57;100672.47;;;28.48;33.46
42811;BME280;28457;55.680;37.656;2022-08-19T09:10:29;100673.88;;;28.74;33.39
42811;BME280;28457;55.680;37.656;2022-08-19T09:13:06;100670.63;;;28.91;33.89
42811;BME280;28457;55.680;37.656;2022-08-19T09:15:42;100684.06;;;29.08;33.01
42811;BME280;28457;55.680;37.656;2022-08-19T09:18:14;100675.69;;;29.13;33.22
42811;BME280;28457;55.680;37.656;2022-08-19T09:20:46;100674.81;;;29.18;33.44
42811;BME280;28457;55.680;37.656;2022-08-19T09:23:15;100677.28;;;29.19;33.09
42811;BME280;28457;55.680;37.656;2022-08-19T09:25:52;100674.66;;;29.28;33.44
42811;BME280;28457;55.680;37.656;2022-08-19T09:28:21;100660.25;;;29.50;32.81
42811;BME280;28457;55.680;37.656;2022-08-19T09:30:54;100666.38;;;29.71;32.88
42811;BME280;28457;55.680;37.656;2022-08-19T09:33:23;100661.72;;;29.85;32.89
42811;BME280;28457;55.680;37.656;2022-08-19T09:36:02;100652.09;;;29.96;32.38
42811;BME280;28457;55.680;37.656;2022-08-19T09:38:35;100665.59;;;30.03;32.44
42811;BME280;28457;55.680;37.656;2022-08-19T09:41:12;100660.19;;;30.12;32.22
42811;BME280;28457;55.680;37.656;2022-08-19T09:43:42;100668.50;;;30.30;32.43
42811;BME280;28457;55.680;37.656;2022-08-19T09:46:15;100668.69;;;30.53;31.63
42811;BME280;28457;55.680;37.656;2022-08-19T09:48:50;100663.38;;;30.70;31.67
42811;BME280;28457;55.680;37.656;2022-08-19T09:51:21;100677.72;;;30.77;30.39
42811;BME280;28457;55.680;37.656;2022-08-19T09:53:50;100681.31;;;30.78;28.25
42811;BME280;28457;55.680;37.656;2022-08-19T09:56:21;100681.22;;;30.83;28.82
42811;BME280;28457;55.680;37.656;2022-08-19T09:58:50;100694.50;;;30.86;28.57
42811;BME280;28457;55.680;37.656;2022-08-19T10:01:23;100697.19;;;30.77;27.28
42811;BME280;28457;55.680;37.656;2022-08-19T10:03:55;100690.16;;;30.80;26.47
42811;BME280;28457;55.680;37.656;2022-08-19T10:06:29;100685.94;;;30.83;25.30
42811;BME280;28457;55.680;37.656;2022-08-19T10:09:14;100691.91;;;30.76;25.64
42811;BME280;28457;55.680;37.656;2022-08-19T10:11:52;100692.72;;;30.76;25.97
42811;BME280;28457;55.680;37.656;2022-08-19T10:14:21;100703.94;;;30.71;24.78
42811;BME280;28457;55.680;37.656;2022-08-19T10:16:52;100702.13;;;30.81;25.10
42811;BME280;28457;55.680;37.656;2022-08-19T10:19:20;100693.91;;;31.03;24.96
42811;BME280;28457;55.680;37.656;2022-08-19T10:21:52;100702.34;;;31.12;24.26
42811;BME280;28457;55.680;37.656;2022-08-19T10:24:26;100698.63;;;31.30;24.92
42811;BME280;28457;55.680;37.656;2022-08-19T10:26:55;100700.41;;;31.54;24.84
42811;BME280;28457;55.680;37.656;2022-08-19T10:29:26;100699.47;;;31.58;23.55
42811;BME280;28457;55.680;37.656;2022-08-19T10:32:01;100701.28;;;31.90;24.13
42811;BME280;28457;55.680;37.656;2022-08-19T10:34:35;100705.56;;;32.33;21.77
42811;BME280;28457;55.680;37.656;2022-08-19T10:37:15;100693.75;;;32.81;23.08
42811;BME280;28457;55.680;37.656;2022-08-19T10:39:54;100696.28;;;33.40;22.23
42811;BME280;28457;55.680;37.656;2022-08-19T10:42:23;100688.81;;;33.92;21.22
42811;BME280;28457;55.680;37.656;2022-08-19T10:44:51;100691.63;;;34.44;19.79
42811;BME280;28457;55.680;37.656;2022-08-19T10:47:21;100695.84;;;34.68;18.82
42811;BME280;28457;55.680;37.656;2022-08-19T10:49:53;100694.31;;;34.88;18.79
42811;BME280;28457;55.680;37.656;2022-08-19T10:52:40;100685.78;;;34.75;18.50
42811;BME280;28457;55.680;37.656;2022-08-19T10:55:18;100679.75;;;35.12;18.58
42811;BME280;28457;55.680;37.656;2022-08-19T10:58:10;100698.22;;;35.04;17.79
42811;BME280;28457;55.680;37.656;2022-08-19T11:00:39;100708.28;;;35.05;18.16
42811;BME280;28457;55.680;37.656;2022-08-19T11:03:10;100706.47;;;34.92;17.81
42811;BME280;28457;55.680;37.656;2022-08-19T11:05:39;100701.28;;;34.73;18.15
42811;BME280;28457;55.680;37.656;2022-08-19T11:08:08;100690.91;;;34.65;19.26
42811;BME280;28457;55.680;37.656;2022-08-19T11:10:51;100686.03;;;34.53;18.85
42811;BME280;28457;55.680;37.656;2022-08-19T11:13:25;100694.72;;;34.43;18.49
42811;BME280;28457;55.680;37.656;2022-08-19T11:15:58;100685.03;;;34.40;19.91
42811;BME280;28457;55.680;37.656;2022-08-19T11:18:36;100706.28;;;33.98;18.61
42811;BME280;28457;55.680;37.656;2022-08-19T11:21:06;100692.94;;;33.95;18.77
42811;BME280;28457;55.680;37.656;2022-08-19T11:23:35;100699.03;;;33.88;19.00
42811;BME280;28457;55.680;37.656;2022-08-19T11:26:03;100689.28;;;33.68;19.92
42811;BME280;28457;55.680;37.656;2022-08-19T11:28:32;100693.41;;;33.62;20.28
42811;BME280;28457;55.680;37.656;2022-08-19T11:31:00;100692.50;;;33.44;19.48
42811;BME280;28457;55.680;37.656;2022-08-19T11:33:30;100680.72;;;32.99;18.87
42811;BME280;28457;55.680;37.656;2022-08-19T11:36:01;100692.88;;;32.72;19.62
42811;BME280;28457;55.680;37.656;2022-08-19T11:38:29;100697.59;;;32.62;19.78
42811;BME280;28457;55.680;37.656;2022-08-19T11:40:59;100692.41;;;32.47;20.31
42811;BME280;28457;55.680;37.656;2022-08-19T11:43:28;100686.41;;;32.40;20.72
42811;BME280;28457;55.680;37.656;2022-08-19T11:46:05;100698.16;;;32.28;20.60
42811;BME280;28457;55.680;37.656;2022-08-19T11:48:35;100698.19;;;32.14;21.50
42811;BME280;28457;55.680;37.656;2022-08-19T11:51:07;100695.47;;;32.01;21.33
42811;BME280;28457;55.680;37.656;2022-08-19T11:53:37;100702.81;;;31.83;21.76
42811;BME280;28457;55.680;37.656;2022-08-19T11:56:07;100694.50;;;31.55;22.62
42811;BME280;28457;55.680;37.656;2022-08-19T11:58:36;100693.69;;;31.55;23.10
42811;BME280;28457;55.680;37.656;2022-08-19T12:01:06;100688.06;;;31.46;22.81
42811;BME280;28457;55.680;37.656;2022-08-19T12:03:35;100689.91;;;31.37;23.22
42811;BME280;28457;55.680;37.656;2022-08-19T12:06:06;100683.91;;;31.30;23.94
42811;BME280;28457;55.680;37.656;2022-08-19T12:08:35;100677.63;;;31.24;24.03
42811;BME280;28457;55.680;37.656;2022-08-19T12:11:04;100680.91;;;31.12;24.27
42811;BME280;28457;55.680;37.656;2022-08-19T12:13:35;100677.09;;;31.08;24.30
42811;BME280;28457;55.680;37.656;2022-08-19T12:16:07;100676.91;;;31.05;24.33
42811;BME280;28457;55.680;37.656;2022-08-19T12:18:36;100672.34;;;30.95;24.39
42811;BME280;28457;55.680;37.656;2022-08-19T12:21:06;100659.38;;;30.76;25.01
42811;BME280;28457;55.680;37.656;2022-08-19T12:23:35;100669.38;;;30.77;25.16
42811;BME280;28457;55.680;37.656;2022-08-19T12:26:04;100678.00;;;30.76;25.34
42811;BME280;28457;55.680;37.656;2022-08-19T12:28:33;100668.28;;;30.73;25.47
42811;BME280;28457;55.680;37.656;2022-08-19T12:31:01;100660.19;;;30.77;25.66
42811;BME280;28457;55.680;37.656;2022-08-19T12:33:30;100660.06;;;30.68;25.68
42811;BME280;28457;55.680;37.656;2022-08-19T12:36:01;100671.50;;;30.67;25.95
42811;BME280;28457;55.680;37.656;2022-08-19T12:38:32;100677.13;;;30.62;26.07
42811;BME280;28457;55.680;37.656;2022-08-19T12:41:02;100683.38;;;30.40;26.08
42811;BME280;28457;55.680;37.656;2022-08-19T12:43:33;100673.16;;;30.16;26.25
42811;BME280;28457;55.680;37.656;2022-08-19T12:46:02;100668.41;;;30.17;26.48
42811;BME280;28457;55.680;37.656;2022-08-19T12:48:31;100674.53;;;30.19;26.48
42811;BME280;28457;55.680;37.656;2022-08-19T12:51:05;100681.75;;;30.01;26.74
42811;BME280;28457;55.680;37.656;2022-08-19T12:53:35;100677.09;;;29.96;26.62
42811;BME280;28457;55.680;37.656;2022-08-19T12:56:05;100670.06;;;29.85;26.87
42811;BME280;28457;55.680;37.656;2022-08-19T12:58:38;100680.53;;;29.69;26.55
42811;BME280;28457;55.680;37.656;2022-08-19T13:01:17;100673.34;;;29.68;26.96
42811;BME280;28457;55.680;37.656;2022-08-19T13:03:49;100688.66;;;29.66;27.84